Snow/Ice From: 16-12-2017 16:00 Until: 17-12-2017 16:00 warning for: Snow/Ice Level: Yellow info button

Although rather usual in this region, locally or potentially dangerous phenomena are expected. (such as local winds, summer thunderstorms, rising streams or high waves) Be aware and pay attention to the latest weather updates, especially if you carry out activities exposed to weather or close to a stream or shoreline. 


Meteo18 Weather Cam more information Meteo18 Weather Cam


Thunder radar more information blitzortung!


warning for Snow/Ice more information rain snow radar


Visit our other weather sites:

Template documentation
and downloads

And another site



Weather Underground History page Text

Daily Summary for September 3, 2017 Units:  Metric    English   Both
« Previous Day
Next Day »
Daily Weekly Monthly Yearly Custom
  High: Low: Average:
Temperature: 22.6 °C 7.8 °C 15.8 °C
Dew Point: 12.2 °C 6.4 °C 8.9 °C
Humidity: 96 % 38 % 67 %
Wind Speed: 14.5 km/h 0.0 km/h 1.6 km/h
Wind Gust: 19.3 km/h - -
Wind:- - SSW
Pressure: 1021.9 hPa 1013.8 hPa -
Precipitation: 0.0 mm    
Historical Graphs
 
 
Tabular Data for September 3, 2017
Time Temperature Dew Point Pressure Wind Wind Speed Wind Gust Humidity Rainfall Rate (Hourly)
00:02 12.6 °C 9.6 °C 1021.9 hPa Calm     82 % 0.0 mm
00:07 12.4 °C 9.4 °C 1021.9 hPa Calm     82 % 0.0 mm
00:12 12.6 °C 9.4 °C 1021.6 hPa Calm     81 % 0.0 mm
00:17 12.7 °C 9.3 °C 1021.6 hPa Calm     80 % 0.0 mm
00:22 12.6 °C 9.4 °C 1021.6 hPa Calm     81 % 0.0 mm
00:27 12.4 °C 9.2 °C 1021.6 hPa Calm     81 % 0.0 mm
00:32 12.2 °C 9.2 °C 1021.6 hPa Calm     82 % 0.0 mm
00:42 11.7 °C 9.1 °C 1021.6 hPa Calm     84 % 0.0 mm
00:47 11.6 °C 9.2 °C 1021.6 hPa Calm     85 % 0.0 mm
00:52 11.5 °C 9.1 °C 1021.6 hPa Calm     85 % 0.0 mm
01:02 11.3 °C 9.0 °C 1021.6 hPa Calm     86 % 0.0 mm
01:07 11.3 °C 9.2 °C 1021.6 hPa Calm     87 % 0.0 mm
01:12 11.4 °C 9.1 °C 1021.6 hPa Calm     86 % 0.0 mm
01:17 11.6 °C 9.3 °C 1021.2 hPa Calm     86 % 0.0 mm
01:22 11.5 °C 9.4 °C 1021.2 hPa Calm     87 % 0.0 mm
01:27 11.5 °C 9.4 °C 1021.2 hPa North 1.6 km/h   87 % 0.0 mm
01:32 11.5 °C 9.4 °C 1021.2 hPa NNE 1.6 km/h 3.2 km/h 87 % 0.0 mm
01:37 11.4 °C 9.3 °C 1021.2 hPa NNE 1.6 km/h 3.2 km/h 87 % 0.0 mm
01:42 11.3 °C 9.4 °C 1021.2 hPa North 1.6 km/h 3.2 km/h 88 % 0.0 mm
01:47 11.2 °C 9.3 °C 1021.2 hPa North 1.6 km/h 4.8 km/h 88 % 0.0 mm
01:52 11.2 °C 9.3 °C 1021.2 hPa Calm   4.8 km/h 88 % 0.0 mm
01:57 11.2 °C 9.1 °C 1021.2 hPa Calm   3.2 km/h 87 % 0.0 mm
02:02 11.0 °C 8.9 °C 1020.9 hPa WNW 1.6 km/h 3.2 km/h 87 % 0.0 mm
02:07 10.9 °C 9.0 °C 1020.9 hPa Calm   3.2 km/h 88 % 0.0 mm
02:12 10.7 °C 8.8 °C 1020.9 hPa Calm   3.2 km/h 88 % 0.0 mm
02:17 10.6 °C 8.9 °C 1020.9 hPa Calm   3.2 km/h 89 % 0.0 mm
02:22 10.4 °C 8.7 °C 1021.2 hPa Calm   1.6 km/h 89 % 0.0 mm
02:32 10.5 °C 8.9 °C 1020.9 hPa Calm     90 % 0.0 mm
02:37 10.4 °C 8.7 °C 1020.9 hPa Calm     89 % 0.0 mm
02:42 10.2 °C 8.5 °C 1020.5 hPa Calm     89 % 0.0 mm
02:47 9.8 °C 8.2 °C 1020.5 hPa Calm     90 % 0.0 mm
02:52 9.9 °C 8.5 °C 1020.5 hPa Calm     91 % 0.0 mm
03:02 10.1 °C 8.9 °C 1020.5 hPa Calm     92 % 0.0 mm
03:07 10.1 °C 8.7 °C 1020.5 hPa Calm     91 % 0.0 mm
03:12 9.7 °C 8.3 °C 1020.5 hPa Calm     91 % 0.0 mm
03:17 9.6 °C 8.2 °C 1020.5 hPa Calm     91 % 0.0 mm
03:27 9.6 °C 8.4 °C 1020.5 hPa Calm     92 % 0.0 mm
03:32 9.7 °C 8.5 °C 1020.5 hPa Calm     92 % 0.0 mm
03:37 9.8 °C 8.6 °C 1020.2 hPa Calm     92 % 0.0 mm
03:42 9.7 °C 8.5 °C 1020.2 hPa Calm     92 % 0.0 mm
03:47 9.7 °C 8.5 °C 1020.2 hPa Calm     92 % 0.0 mm
03:52 9.3 °C 7.9 °C 1020.2 hPa Calm     91 % 0.0 mm
03:57 9.2 °C 8.0 °C 1020.2 hPa Calm     92 % 0.0 mm
04:02 9.1 °C 7.9 °C 1020.2 hPa Calm     92 % 0.0 mm
04:07 9.2 °C 8.1 °C 1019.9 hPa Calm     93 % 0.0 mm
04:12 9.2 °C 8.1 °C 1019.9 hPa Calm     93 % 0.0 mm
04:17 9.1 °C 7.9 °C 1019.9 hPa Calm     92 % 0.0 mm
04:22 9.1 °C 8.0 °C 1019.9 hPa Calm     93 % 0.0 mm
04:27 9.0 °C 7.9 °C 1019.9 hPa Calm     93 % 0.0 mm
04:32 8.9 °C 7.8 °C 1019.9 hPa Calm     93 % 0.0 mm
04:37 9.1 °C 8.0 °C 1019.9 hPa Calm     93 % 0.0 mm
04:42 9.1 °C 8.0 °C 1019.9 hPa Calm     93 % 0.0 mm
04:47 9.1 °C 8.0 °C 1019.9 hPa Calm     93 % 0.0 mm
04:52 9.1 °C 8.0 °C 1019.9 hPa Calm     93 % 0.0 mm
04:57 9.0 °C 7.9 °C 1019.9 hPa Calm     93 % 0.0 mm
05:02 8.9 °C 7.8 °C 1019.9 hPa Calm     93 % 0.0 mm
05:07 8.8 °C 7.7 °C 1019.9 hPa Calm     93 % 0.0 mm
05:12 8.7 °C 7.6 °C 1019.9 hPa Calm     93 % 0.0 mm
05:22 8.6 °C 7.5 °C 1019.9 hPa Calm     93 % 0.0 mm
05:27 8.6 °C 7.5 °C 1019.9 hPa Calm     93 % 0.0 mm
05:32 8.6 °C 7.7 °C 1019.9 hPa Calm     94 % 0.0 mm
05:37 8.6 °C 7.7 °C 1019.5 hPa Calm     94 % 0.0 mm
05:42 8.6 °C 7.7 °C 1019.5 hPa Calm     94 % 0.0 mm
05:47 8.5 °C 7.6 °C 1019.5 hPa Calm     94 % 0.0 mm
05:52 8.3 °C 7.2 °C 1019.5 hPa Calm     93 % 0.0 mm
05:57 8.3 °C 7.4 °C 1019.5 hPa Calm     94 % 0.0 mm
06:02 8.2 °C 7.3 °C 1019.5 hPa Calm     94 % 0.0 mm
06:07 8.2 °C 7.3 °C 1019.5 hPa Calm     94 % 0.0 mm
06:12 8.3 °C 7.4 °C 1019.5 hPa Calm     94 % 0.0 mm
06:17 8.1 °C 7.2 °C 1019.2 hPa Calm     94 % 0.0 mm
06:22 8.1 °C 7.2 °C 1019.2 hPa Calm     94 % 0.0 mm
06:27 8.0 °C 7.1 °C 1019.2 hPa Calm     94 % 0.0 mm
06:32 8.1 °C 7.3 °C 1019.2 hPa Calm     95 % 0.0 mm
06:42 8.1 °C 7.3 °C 1019.2 hPa Calm     95 % 0.0 mm
06:47 8.1 °C 7.3 °C 1019.2 hPa Calm     95 % 0.0 mm
06:52 7.9 °C 7.0 °C 1019.2 hPa Calm     94 % 0.0 mm
07:02 7.8 °C 7.0 °C 1019.2 hPa Calm     95 % 0.0 mm
07:07 7.8 °C 7.0 °C 1019.2 hPa Calm     95 % 0.0 mm
07:12 7.8 °C 7.0 °C 1019.2 hPa Calm     95 % 0.0 mm
07:17 7.8 °C 7.0 °C 1019.2 hPa Calm     95 % 0.0 mm
07:22 7.8 °C 7.0 °C 1019.2 hPa Calm     95 % 0.0 mm
07:27 7.8 °C 7.0 °C 1019.2 hPa Calm     95 % 0.0 mm
07:32 7.9 °C 7.1 °C 1019.2 hPa Calm     95 % 0.0 mm
07:37 8.0 °C 7.2 °C 1019.2 hPa Calm     95 % 0.0 mm
07:42 8.1 °C 7.3 °C 1019.2 hPa Calm     95 % 0.0 mm
07:47 8.2 °C 7.4 °C 1019.2 hPa Calm     95 % 0.0 mm
07:52 8.3 °C 7.5 °C 1019.2 hPa Calm     95 % 0.0 mm
07:57 8.2 °C 7.4 °C 1019.2 hPa Calm     95 % 0.0 mm
08:02 8.3 °C 7.5 °C 1019.2 hPa Calm     95 % 0.0 mm
08:07 8.6 °C 7.8 °C 1019.2 hPa Calm     95 % 0.0 mm
08:12 9.1 °C 8.5 °C 1019.2 hPa Calm     96 % 0.0 mm
08:17 9.7 °C 9.1 °C 1019.2 hPa Calm     96 % 0.0 mm
08:22 10.2 °C 9.6 °C 1019.2 hPa Calm     96 % 0.0 mm
08:32 10.9 °C 10.1 °C 1018.8 hPa Calm     95 % 0.0 mm
08:37 11.4 °C 10.6 °C 1018.8 hPa Calm     95 % 0.0 mm
08:42 11.7 °C 10.6 °C 1018.8 hPa Calm     93 % 0.0 mm
08:47 12.1 °C 10.8 °C 1018.8 hPa Calm     92 % 0.0 mm
08:57 12.1 °C 10.3 °C 1018.8 hPa Calm   3.2 km/h 89 % 0.0 mm
09:02 11.9 °C 10.0 °C 1018.8 hPa Calm   3.2 km/h 88 % 0.0 mm
09:12 11.8 °C 9.9 °C 1018.8 hPa Calm   3.2 km/h 88 % 0.0 mm
09:17 11.9 °C 10.1 °C 1018.8 hPa Calm   3.2 km/h 89 % 0.0 mm
09:27 12.0 °C 10.1 °C 1018.8 hPa Calm   3.2 km/h 88 % 0.0 mm
09:32 12.2 °C 10.3 °C 1018.8 hPa Calm   3.2 km/h 88 % 0.0 mm
09:42 13.0 °C 10.7 °C 1018.8 hPa Calm     86 % 0.0 mm
09:47 13.4 °C 11.1 °C 1018.8 hPa Calm     86 % 0.0 mm
09:57 14.0 °C 11.0 °C 1018.8 hPa Calm   3.2 km/h 82 % 0.0 mm
10:02 14.4 °C 11.4 °C 1018.8 hPa ESE 3.2 km/h 3.2 km/h 82 % 0.0 mm
10:07 14.8 °C 11.6 °C 1018.8 hPa Calm   3.2 km/h 81 % 0.0 mm
10:12 15.1 °C 11.5 °C 1018.8 hPa Calm   3.2 km/h 79 % 0.0 mm
10:17 15.2 °C 11.4 °C 1018.8 hPa ESE 1.6 km/h 3.2 km/h 78 % 0.0 mm
10:22 15.1 °C 11.5 °C 1018.8 hPa Calm   4.8 km/h 79 % 0.0 mm
10:27 15.2 °C 11.4 °C 1018.8 hPa Calm   4.8 km/h 78 % 0.0 mm
10:32 15.1 °C 11.3 °C 1018.5 hPa SE 1.6 km/h 4.8 km/h 78 % 0.0 mm
10:37 15.1 °C 11.5 °C 1018.5 hPa SE 1.6 km/h 4.8 km/h 79 % 0.0 mm
10:42 15.6 °C 11.8 °C 1018.5 hPa Calm   4.8 km/h 78 % 0.0 mm
10:47 15.8 °C 12.0 °C 1018.5 hPa Calm   4.8 km/h 78 % 0.0 mm
10:52 16.1 °C 11.9 °C 1018.5 hPa ESE 3.2 km/h 3.2 km/h 76 % 0.0 mm
10:57 16.1 °C 11.9 °C 1018.5 hPa Calm   4.8 km/h 76 % 0.0 mm
11:02 16.3 °C 12.1 °C 1018.5 hPa ENE 1.6 km/h 4.8 km/h 76 % 0.0 mm
11:07 16.8 °C 12.1 °C 1018.5 hPa WSW 1.6 km/h 4.8 km/h 74 % 0.0 mm
11:12 17.2 °C 12.1 °C 1018.2 hPa East 3.2 km/h 4.8 km/h 72 % 0.0 mm
11:17 17.1 °C 11.8 °C 1018.5 hPa ENE 1.6 km/h 4.8 km/h 71 % 0.0 mm
11:22 17.1 °C 12.0 °C 1018.2 hPa East 4.8 km/h 8.0 km/h 72 % 0.0 mm
11:27 17.7 °C 12.2 °C 1018.2 hPa SSW 3.2 km/h 8.0 km/h 70 % 0.0 mm
11:32 18.0 °C 12.2 °C 1018.2 hPa ENE 1.6 km/h 8.0 km/h 69 % 0.0 mm
11:37 18.3 °C 11.8 °C 1018.2 hPa WSW 1.6 km/h 4.8 km/h 66 % 0.0 mm
11:42 18.6 °C 11.9 °C 1017.8 hPa SW 3.2 km/h 4.8 km/h 65 % 0.0 mm
11:47 18.9 °C 12.2 °C 1017.8 hPa ESE 1.6 km/h 4.8 km/h 65 % 0.0 mm
11:57 19.3 °C 12.1 °C 1017.8 hPa ENE 3.2 km/h 8.0 km/h 63 % 0.0 mm
12:02 19.1 °C 11.9 °C 1017.8 hPa SSE 1.6 km/h 8.0 km/h 63 % 0.0 mm
12:07 19.3 °C 10.8 °C 1017.8 hPa SW 1.6 km/h 12.9 km/h 58 % 0.0 mm
12:12 19.6 °C 11.4 °C 1017.8 hPa SSE 3.2 km/h 12.9 km/h 59 % 0.0 mm
12:17 19.9 °C 11.1 °C 1017.8 hPa SW 9.7 km/h 12.9 km/h 57 % 0.0 mm
12:22 19.6 °C 10.3 °C 1017.8 hPa SSW 4.8 km/h 14.5 km/h 55 % 0.0 mm
12:27 19.6 °C 10.6 °C 1017.8 hPa Calm   14.5 km/h 56 % 0.0 mm
12:32 19.7 °C 10.9 °C 1017.5 hPa Calm   14.5 km/h 57 % 0.0 mm
12:37 20.0 °C 11.2 °C 1017.5 hPa Calm   12.9 km/h 57 % 0.0 mm
12:42 20.6 °C 11.0 °C 1017.5 hPa ESE 1.6 km/h 11.3 km/h 54 % 0.0 mm
12:47 20.6 °C 11.0 °C 1017.5 hPa SE 3.2 km/h 11.3 km/h 54 % 0.0 mm
12:52 21.2 °C 11.0 °C 1017.2 hPa South 3.2 km/h 11.3 km/h 52 % 0.0 mm
12:57 21.3 °C 9.8 °C 1017.5 hPa WSW 8.0 km/h 12.9 km/h 48 % 0.0 mm
13:02 21.1 °C 10.0 °C 1017.2 hPa SSW 3.2 km/h 12.9 km/h 49 % 0.0 mm
13:07 20.9 °C 9.2 °C 1017.2 hPa WSW 4.8 km/h 12.9 km/h 47 % 0.0 mm
13:12 20.8 °C 9.7 °C 1017.2 hPa South 6.4 km/h 12.9 km/h 49 % 0.0 mm
13:17 20.7 °C 9.0 °C 1017.2 hPa East 1.6 km/h 12.9 km/h 47 % 0.0 mm
13:22 20.8 °C 9.4 °C 1017.2 hPa Calm   11.3 km/h 48 % 0.0 mm
13:27 21.2 °C 9.4 °C 1016.8 hPa East 4.8 km/h 9.7 km/h 47 % 0.0 mm
13:32 21.1 °C 9.7 °C 1016.8 hPa SSW 4.8 km/h 11.3 km/h 48 % 0.0 mm
13:37 21.2 °C 8.8 °C 1016.8 hPa WSW 1.6 km/h 16.1 km/h 45 % 0.0 mm
13:42 21.6 °C 9.5 °C 1016.8 hPa West 1.6 km/h 16.1 km/h 46 % 0.0 mm
13:47 22.2 °C 9.0 °C 1016.5 hPa ESE 3.2 km/h 8.0 km/h 43 % 0.0 mm
13:52 21.7 °C 8.6 °C 1016.5 hPa South 9.7 km/h 11.3 km/h 43 % 0.0 mm
13:57 21.8 °C 8.3 °C 1016.5 hPa East 3.2 km/h 12.9 km/h 42 % 0.0 mm
14:02 21.4 °C 7.6 °C 1016.5 hPa Calm   12.9 km/h 41 % 0.0 mm
14:07 21.4 °C 8.6 °C 1016.5 hPa SSE 3.2 km/h 12.9 km/h 44 % 0.0 mm
14:12 21.6 °C 8.5 °C 1016.5 hPa SSW 11.3 km/h 11.3 km/h 43 % 0.0 mm
14:17 21.3 °C 7.5 °C 1016.5 hPa SW 8.0 km/h 14.5 km/h 41 % 0.0 mm
14:22 21.1 °C 8.0 °C 1016.1 hPa East 1.6 km/h 14.5 km/h 43 % 0.0 mm
14:27 21.2 °C 8.1 °C 1016.1 hPa SW 1.6 km/h 14.5 km/h 43 % 0.0 mm
14:32 21.3 °C 8.2 °C 1016.1 hPa WNW 3.2 km/h 14.5 km/h 43 % 0.0 mm
14:37 21.6 °C 8.1 °C 1016.1 hPa SSW 9.7 km/h 9.7 km/h 42 % 0.0 mm
14:42 21.7 °C 7.9 °C 1016.1 hPa Calm   11.3 km/h 41 % 0.0 mm
14:47 21.9 °C 7.7 °C 1016.1 hPa Calm   11.3 km/h 40 % 0.0 mm
14:52 22.1 °C 8.6 °C 1015.8 hPa SW 3.2 km/h 14.5 km/h 42 % 0.0 mm
14:57 21.9 °C 6.9 °C 1015.8 hPa SSW 3.2 km/h 14.5 km/h 38 % 0.0 mm
15:02 21.5 °C 7.7 °C 1015.8 hPa SW 6.4 km/h 16.1 km/h 41 % 0.0 mm
15:07 21.7 °C 7.5 °C 1015.8 hPa Calm   16.1 km/h 40 % 0.0 mm
15:17 21.6 °C 8.1 °C 1015.8 hPa SW 1.6 km/h 12.9 km/h 42 % 0.0 mm
15:22 21.8 °C 8.3 °C 1015.8 hPa SW 8.0 km/h 12.9 km/h 42 % 0.0 mm
15:27 21.7 °C 7.9 °C 1015.5 hPa WSW 14.5 km/h 14.5 km/h 41 % 0.0 mm
15:32 21.4 °C 8.0 °C 1015.5 hPa SSW 3.2 km/h 19.3 km/h 42 % 0.0 mm
15:37 21.5 °C 8.0 °C 1015.5 hPa Calm   19.3 km/h 42 % 0.0 mm
15:42 21.8 °C 8.0 °C 1015.5 hPa ENE 1.6 km/h 19.3 km/h 41 % 0.0 mm
15:47 22.1 °C 7.9 °C 1015.5 hPa SSE 3.2 km/h 9.7 km/h 40 % 0.0 mm
15:57 22.1 °C 7.9 °C 1015.1 hPa SSW 8.0 km/h 11.3 km/h 40 % 0.0 mm
16:02 21.8 °C 7.6 °C 1015.1 hPa SW 6.4 km/h 14.5 km/h 40 % 0.0 mm
16:07 21.8 °C 8.0 °C 1015.1 hPa WSW 3.2 km/h 14.5 km/h 41 % 0.0 mm
16:12 21.8 °C 8.0 °C 1015.1 hPa WSW 6.4 km/h 14.5 km/h 41 % 0.0 mm
16:17 22.1 °C 8.2 °C 1015.1 hPa West 6.4 km/h 12.9 km/h 41 % 0.0 mm
16:22 22.1 °C 8.2 °C 1014.8 hPa Calm   12.9 km/h 41 % 0.0 mm
16:27 22.4 °C 8.1 °C 1014.8 hPa NNW 4.8 km/h 12.9 km/h 40 % 0.0 mm
16:32 22.4 °C 8.1 °C 1014.8 hPa WSW 1.6 km/h 12.9 km/h 40 % 0.0 mm
16:37 22.6 °C 8.7 °C 1014.8 hPa SW 8.0 km/h 9.7 km/h 41 % 0.0 mm
16:42 22.6 °C 8.3 °C 1014.8 hPa SW 4.8 km/h 9.7 km/h 40 % 0.0 mm
16:47 22.5 °C 7.9 °C 1014.8 hPa WSW 6.4 km/h 11.3 km/h 39 % 0.0 mm
16:52 22.0 °C 8.1 °C 1014.8 hPa SSW 8.0 km/h 11.3 km/h 41 % 0.0 mm
16:57 21.9 °C 7.7 °C 1014.4 hPa West 3.2 km/h 11.3 km/h 40 % 0.0 mm
17:02 21.8 °C 7.6 °C 1014.4 hPa West 3.2 km/h 12.9 km/h 40 % 0.0 mm
17:07 21.8 °C 7.6 °C 1014.4 hPa WSW 3.2 km/h 14.5 km/h 40 % 0.0 mm
17:12 22.1 °C 8.2 °C 1014.4 hPa WNW 4.8 km/h 14.5 km/h 41 % 0.0 mm
17:17 22.1 °C 7.9 °C 1014.4 hPa Calm   11.3 km/h 40 % 0.0 mm
17:22 22.4 °C 8.1 °C 1014.4 hPa Calm   9.7 km/h 40 % 0.0 mm
17:27 22.5 °C 7.9 °C 1014.4 hPa WSW 3.2 km/h 8.0 km/h 39 % 0.0 mm
17:32 22.1 °C 7.9 °C 1014.4 hPa West 8.0 km/h 14.5 km/h 40 % 0.0 mm
17:37 21.8 °C 7.6 °C 1014.4 hPa WSW 6.4 km/h 17.7 km/h 40 % 0.0 mm
17:42 21.7 °C 7.5 °C 1014.4 hPa WSW 3.2 km/h 17.7 km/h 40 % 0.0 mm
17:47 21.4 °C 7.2 °C 1014.4 hPa West 11.3 km/h 14.5 km/h 40 % 0.0 mm
17:57 21.3 °C 6.8 °C 1014.4 hPa West 4.8 km/h 16.1 km/h 39 % 0.0 mm
18:02 21.2 °C 6.7 °C 1014.1 hPa WSW 8.0 km/h 16.1 km/h 39 % 0.0 mm
18:07 21.3 °C 6.8 °C 1014.1 hPa West 6.4 km/h 14.5 km/h 39 % 0.0 mm
18:12 21.3 °C 6.8 °C 1014.1 hPa SW 4.8 km/h 11.3 km/h 39 % 0.0 mm
18:17 21.3 °C 6.8 °C 1014.1 hPa SW 4.8 km/h 8.0 km/h 39 % 0.0 mm
18:22 21.3 °C 6.8 °C 1014.1 hPa West 4.8 km/h 12.9 km/h 39 % 0.0 mm
18:27 21.2 °C 6.7 °C 1014.1 hPa West 8.0 km/h 12.9 km/h 39 % 0.0 mm
18:32 21.2 °C 6.7 °C 1014.1 hPa WSW 8.0 km/h 12.9 km/h 39 % 0.0 mm
18:42 21.1 °C 7.0 °C 1014.1 hPa West 4.8 km/h 12.9 km/h 40 % 0.0 mm
18:47 21.0 °C 6.9 °C 1014.1 hPa WSW 3.2 km/h 12.9 km/h 40 % 0.0 mm
18:52 20.9 °C 6.8 °C 1014.1 hPa West 3.2 km/h 11.3 km/h 40 % 0.0 mm
18:57 20.9 °C 6.4 °C 1014.1 hPa SSW 3.2 km/h 9.7 km/h 39 % 0.0 mm
19:02 20.8 °C 6.7 °C 1014.1 hPa West 4.8 km/h 9.7 km/h 40 % 0.0 mm
19:07 20.8 °C 7.1 °C 1014.1 hPa West 1.6 km/h 8.0 km/h 41 % 0.0 mm
19:12 20.7 °C 7.3 °C 1014.1 hPa SW 1.6 km/h 8.0 km/h 42 % 0.0 mm
19:17 20.7 °C 7.7 °C 1014.1 hPa West 3.2 km/h 6.4 km/h 43 % 0.0 mm
19:22 20.6 °C 7.6 °C 1013.8 hPa WSW 1.6 km/h 6.4 km/h 43 % 0.0 mm
19:27 20.6 °C 7.9 °C 1013.8 hPa WSW 1.6 km/h 6.4 km/h 44 % 0.0 mm
19:32 20.5 °C 7.8 °C 1013.8 hPa WSW 1.6 km/h 4.8 km/h 44 % 0.0 mm
19:37 20.4 °C 7.7 °C 1013.8 hPa Calm   4.8 km/h 44 % 0.0 mm
19:42 20.4 °C 8.4 °C 1013.8 hPa Calm   3.2 km/h 46 % 0.0 mm
19:47 20.4 °C 8.1 °C 1013.8 hPa Calm   3.2 km/h 45 % 0.0 mm
19:52 20.4 °C 8.1 °C 1013.8 hPa Calm   1.6 km/h 45 % 0.0 mm
19:57 20.3 °C 8.3 °C 1013.8 hPa Calm   1.6 km/h 46 % 0.0 mm
20:02 20.2 °C 8.5 °C 1013.8 hPa Calm   1.6 km/h 47 % 0.0 mm
20:07 20.1 °C 8.1 °C 1013.8 hPa Calm     46 % 0.0 mm
20:12 20.1 °C 7.8 °C 1013.8 hPa Calm     45 % 0.0 mm
20:17 20.1 °C 8.7 °C 1013.8 hPa Calm     48 % 0.0 mm
20:22 19.8 °C 8.5 °C 1013.8 hPa Calm     48 % 0.0 mm
20:27 19.8 °C 7.8 °C 1013.8 hPa Calm     46 % 0.0 mm
20:32 19.8 °C 8.5 °C 1013.8 hPa Calm     48 % 0.0 mm
20:37 19.6 °C 8.6 °C 1013.8 hPa Calm     49 % 0.0 mm
20:42 19.3 °C 8.9 °C 1013.8 hPa Calm     51 % 0.0 mm
20:47 19.2 °C 9.4 °C 1014.1 hPa Calm     53 % 0.0 mm
20:52 18.9 °C 9.4 °C 1014.1 hPa Calm     54 % 0.0 mm
20:57 18.8 °C 9.3 °C 1014.1 hPa Calm     54 % 0.0 mm
21:02 18.6 °C 9.4 °C 1014.1 hPa Calm     55 % 0.0 mm
21:07 18.5 °C 8.7 °C 1014.1 hPa Calm     53 % 0.0 mm
21:12 18.5 °C 9.0 °C 1014.4 hPa Calm     54 % 0.0 mm
21:17 18.3 °C 9.1 °C 1014.4 hPa Calm     55 % 0.0 mm
21:22 18.2 °C 9.3 °C 1014.4 hPa Calm     56 % 0.0 mm
21:27 18.0 °C 9.4 °C 1014.4 hPa Calm     57 % 0.0 mm
21:32 18.0 °C 8.8 °C 1014.4 hPa Calm     55 % 0.0 mm
21:37 18.1 °C 8.4 °C 1014.4 hPa Calm     53 % 0.0 mm
21:42 18.3 °C 8.6 °C 1014.4 hPa Calm     53 % 0.0 mm
21:47 18.3 °C 9.4 °C 1014.4 hPa Calm     56 % 0.0 mm
21:52 18.2 °C 9.3 °C 1014.4 hPa Calm     56 % 0.0 mm
22:02 18.1 °C 9.2 °C 1014.4 hPa Calm     56 % 0.0 mm
22:07 18.1 °C 9.4 °C 1014.4 hPa Calm     57 % 0.0 mm
22:12 18.1 °C 9.4 °C 1014.4 hPa Calm     57 % 0.0 mm
22:17 18.1 °C 9.7 °C 1014.4 hPa ESE 1.6 km/h   58 % 0.0 mm
22:22 18.0 °C 9.9 °C 1014.4 hPa Calm   3.2 km/h 59 % 0.0 mm
22:27 17.9 °C 10.0 °C 1014.4 hPa Calm   3.2 km/h 60 % 0.0 mm
22:37 17.8 °C 10.2 °C 1014.4 hPa Calm   3.2 km/h 61 % 0.0 mm
22:42 17.8 °C 10.2 °C 1014.4 hPa SSW 1.6 km/h 3.2 km/h 61 % 0.0 mm
22:47 17.8 °C 10.2 °C 1014.4 hPa SSW 1.6 km/h 4.8 km/h 61 % 0.0 mm
22:52 17.8 °C 10.2 °C 1014.4 hPa South 1.6 km/h 4.8 km/h 61 % 0.0 mm
22:57 17.7 °C 10.1 °C 1014.4 hPa SSE 3.2 km/h 4.8 km/h 61 % 0.0 mm
23:02 17.7 °C 10.1 °C 1014.4 hPa Calm   3.2 km/h 61 % 0.0 mm
23:07 17.7 °C 10.1 °C 1014.4 hPa Calm   3.2 km/h 61 % 0.0 mm
23:12 17.6 °C 10.0 °C 1014.4 hPa South 1.6 km/h 4.8 km/h 61 % 0.0 mm
23:17 17.6 °C 10.5 °C 1014.4 hPa Calm   6.4 km/h 63 % 0.0 mm
23:22 17.4 °C 10.5 °C 1014.4 hPa Calm   6.4 km/h 64 % 0.0 mm
23:27 17.3 °C 10.7 °C 1014.4 hPa SSW 1.6 km/h 4.8 km/h 65 % 0.0 mm
23:32 17.1 °C 10.9 °C 1014.4 hPa Calm   4.8 km/h 67 % 0.0 mm
23:37 16.8 °C 11.1 °C 1014.4 hPa Calm   4.8 km/h 69 % 0.0 mm
23:42 16.6 °C 10.9 °C 1014.4 hPa Calm   4.8 km/h 69 % 0.0 mm
23:47 16.6 °C 11.3 °C 1014.4 hPa Calm   1.6 km/h 71 % 0.0 mm
23:52 16.5 °C 11.2 °C 1014.4 hPa Calm   1.6 km/h 71 % 0.0 mm
23:57 16.4 °C 11.5 °C 1014.4 hPa Calm   1.6 km/h 73 % 0.0 mm
Meteo18
Compliments of Weather Underground - 4 mb

Script developed by  Jim McMurry - jmcmurry@mwt.net Adapted for the template by  Wim van der Kuil - Leuven-Template.eu

You find our weather info also at:

European Weather Network

Weather Underground

Equipment we use:

Weather-station
Davis Vue

Weather-program
Meteohub

Weather-server
Raspberry PI 2 B+

Provider
1 and 1

Davis Vue

Meteohub

Raspberry PI 2 B+

1 and 1